ボリースピリ国際空港(キエフ)の過去48時間の天気

ボリースピリ国際空港(キエフ) (Boryspil)

現在時刻: 9/23 03:36 EEST (9/23 00:36 UTC) 以下の時間は現地時間です。

過去48時間のMETAR気象情報
時間 風向 風速(m/s) 視程 気温(℃) 湿度(%) 気圧(hPa) 天気現象
23 03:00 西北西 2 10km以上 7 93 1014
23 02:30 西北西 2 10km以上 7 93 1014
23 02:00 西北西 2 10km以上 7 93 1014
23 01:30 不定 1 10km以上 7 93 1014
23 01:00 西北西 2 10km以上 7 93 1014
23 00:30 西北西 2 10km以上 7 93 1014
23 00:00 西北西 2 10km以上 7 93 1014 弱い雨
22 23:30 不定 1 10km以上 7 93 1014 弱い雨
22 23:00 西北西 1 10km以上 7 93 1014 弱い雨
22 22:30 不定 1 10km以上 7 87 1014
22 22:00 西 1 10km以上 7 93 1014
22 21:30 西北西 2 10km以上 7 87 1014
22 21:00 西北西 2 10km以上 7 87 1014
22 20:30 北西 3 10km以上 7 87 1014
22 20:00 北西 3 10km以上 8 81 1014
22 19:30 北西 2 10km以上 8 81 1014
22 19:00 北西 3 10km以上 8 81 1014
22 18:30 北西 3 10km以上 8 76 1014
22 18:00 北西 3 10km以上 8 76 1014
22 17:30 西北西 3 10km以上 8 76 1014
22 17:00 北西 3 10km以上 8 76 1014
22 16:30 北西 4 10km以上 8 76 1014
22 16:00 西北西 3 10km以上 8 76 1014
22 15:30 西北西 3 10km以上 8 76 1014
22 15:00 北西 4 10km以上 8 81 1014
22 14:30 西北西 3 10km以上 9 71 1014
22 14:00 西北西 4 10km以上 8 76 1014
22 13:30 北西 3 10km以上 8 76 1014
22 13:00 西北西 3 10km以上 8 76 1014
22 12:30 西北西 3 10km以上 8 76 1014
22 12:00 西北西 4 10km以上 8 76 1014
22 11:30 西北西 3 10km以上 8 76 1014
22 11:00 北西 3 10km以上 7 81 1014
22 10:30 西北西 3 10km以上 7 81 1014
22 10:00 西北西 3 10km以上 7 81 1014
22 09:30 西北西 4 10km以上 7 81 1014
22 09:00 西北西 4 10km以上 7 81 1014
22 08:30 西北西 4 10km以上 7 81 1014
22 08:00 西北西 3 10km以上 7 81 1014
22 07:30 西北西 3 10km以上 7 81 1014
22 07:00 北西 3 10km以上 7 81 1014
22 06:30 西北西 3 10km以上 7 81 1014
22 06:00 西北西 4 10km以上 7 81 1014
22 05:30 西北西 3 10km以上 7 81 1014 弱い雨
22 05:00 西北西 3 10km以上 7 81 1014
22 04:30 西北西 4 10km以上 7 81 1014
22 04:00 西北西 4 10km以上 7 87 1014
22 03:30 西北西 4 10km以上 7 81 1015
22 03:00 西北西 4 10km以上 7 81 1015
22 02:30 西北西 4 10km以上 7 81 1015
22 02:00 西北西 4 10km以上 7 81 1015
22 01:30 西北西 3 10km以上 7 87 1015
22 01:00 西北西 3 10km以上 7 81 1015
22 00:30 西北西 4 10km以上 7 87 1015
22 00:00 西北西 4 10km以上 7 87 1015
21 23:30 西北西 4 10km以上 7 87 1015
21 23:00 西北西 4 10km以上 7 87 1015
21 22:30 西北西 4 10km以上 7 87 1015
21 22:00 西北西 5 10km以上 8 81 1015
21 21:30 西北西 4 10km以上 8 81 1015
21 21:00 西北西 5 10km以上 8 81 1015
21 20:30 西北西 4 10km以上 8 81 1015
21 20:00 西北西 5 10km以上 8 81 1015
21 19:30 西北西 4 10km以上 8 81 1015 弱い雨
21 19:00 西北西 4 10km以上 8 81 1015
21 18:30 西北西 4 10km以上 8 81 1015
21 18:00 西北西 4 10km以上 8 81 1015
21 17:30 北西 5 10km以上 8 76 1015
21 17:00 西北西 6 10km以上 8 76 1015
21 16:30 西 4 10km以上 8 81 1014
21 16:00 西 4 10km以上 8 81 1014
21 15:30 西北西 3 10km以上 9 76 1014
21 15:00 西北西 4 10km以上 8 81 1014
21 14:30 西 4 10km以上 8 76 1014
21 14:00 西 5 10km以上 8 81 1014
21 13:30 西 4 10km以上 8 81 1014
21 13:00 西 4 10km以上 8 76 1014
21 12:30 西 5 10km以上 7 87 1014 弱い雨
21 12:00 西 4 10km以上 7 87 1014 弱い雨
21 11:30 西 4 10km以上 8 81 1014 弱い雨
21 11:00 西 4 10km以上 7 87 1013
21 10:30 西 4 10km以上 7 81 1013
21 10:00 西 4 10km以上 8 76 1013
21 09:30 西 4 10km以上 7 87 1013
21 09:00 西 4 10km以上 7 87 1013
21 08:30 西 4 10km以上 7 87 1013
21 08:00 西 3 10km以上 7 87 1013
21 07:30 西 3 10km以上 7 87 1013
21 07:00 西 3 10km以上 7 81 1013
21 06:30 西北西 3 10km以上 7 87 1013
21 06:00 西北西 4 10km以上 7 81 1013
21 05:30 西北西 3 10km以上 7 87 1013
21 05:00 西北西 4 10km以上 7 87 1013
21 04:30 西北西 3 10km以上 7 87 1013
21 04:00 北西 3 10km以上 8 87 1013
UKBB 230000Z 30002MPS 280V360 9999 SCT009 BKN012 07/06 Q1014 R88/290050 NOSIG
UKBB 222330Z 29002MPS 9999 OVC012 07/06 Q1014 R88/290050 NOSIG
UKBB 222300Z 29002MPS 260V320 9999 OVC012 07/06 Q1014 R88/290050 NOSIG
UKBB 222230Z VRB01MPS 9999 OVC014 07/06 Q1014 R88/290050 NOSIG
UKBB 222200Z 29002MPS 9999 OVC014 07/06 Q1014 R88/290050 NOSIG
UKBB 222130Z 30002MPS 9999 FEW012 BKN020 07/06 Q1014 R88/290050 NOSIG
UKBB 222100Z 30002MPS 9999 -RA SCT016 BKN022 07/06 Q1014 R88/290050 NOSIG
UKBB 222030Z VRB01MPS 9999 -RA OVC016 07/06 Q1014 R88/290050 NOSIG
UKBB 222000Z 30001MPS 9999 -RA OVC016 07/06 Q1014 R88/CLRD// NOSIG
UKBB 221930Z VRB01MPS 9999 OVC018 07/05 Q1014 R88/D NOSIG
UKBB 221900Z 28001MPS 9999 OVC018 07/06 Q1014 R88/D NOSIG
UKBB 221830Z 29002MPS 9999 OVC024 07/05 Q1014 R88/D NOSIG
UKBB 221800Z 30002MPS 260V330 9999 OVC020 07/05 Q1014 R88/CLRD// NOSIG
UKBB 221730Z 32003MPS 260V340 9999 OVC020 07/05 Q1014 R88/D NOSIG
UKBB 221700Z 32003MPS 9999 OVC020 08/05 Q1014 R88/CLRD// NOSIG
UKBB 221630Z 32002MPS 9999 OVC020 08/05 Q1014 R88/CLRD// NOSIG
UKBB 221600Z 31003MPS 9999 OVC020 08/05 Q1014 R88/CLRD// NOSIG
UKBB 221530Z 32003MPS 270V340 9999 OVC020 08/04 Q1014 R88/D NOSIG
UKBB 221500Z 31003MPS 280V340 9999 OVC020 08/04 Q1014 R88/CLRD// NOSIG
UKBB 221430Z 30003MPS 270V330 9999 OVC020 08/04 Q1014 R88/CLRD// NOSIG
UKBB 221400Z 31003MPS 280V340 9999 OVC020 08/04 Q1014 R88/CLRD// NOSIG
UKBB 221330Z 31004MPS 260V330 9999 OVC020 08/04 Q1014 R88/D NOSIG
UKBB 221300Z 29003MPS 9999 OVC020 08/04 Q1014 R88/CLRD// NOSIG
UKBB 221230Z 29003MPS 260V330 9999 OVC020 08/04 Q1014 R88/D NOSIG
UKBB 221200Z 31004MPS 270V330 9999 OVC022 08/05 Q1014 R88/CLRD// NOSIG
UKBB 221130Z 30003MPS 260V330 9999 OVC020 09/04 Q1014 R88/CLRD// NOSIG
UKBB 221100Z 29004MPS 260V330 9999 OVC018 08/04 Q1014 R88/CLRD// NOSIG
UKBB 221030Z 31003MPS 9999 OVC018 08/04 Q1014 R88/CLRD// NOSIG
UKBB 221000Z 30003MPS 250V330 9999 OVC016 08/04 Q1014 R88/CLRD// NOSIG
UKBB 220930Z 29003MPS 260V320 9999 OVC016 08/04 Q1014 R88/D NOSIG
UKBB 220900Z 30004MPS 260V340 9999 OVC016 08/04 Q1014 R88/CLRD// NOSIG
UKBB 220830Z 30003MPS 9999 OVC014 08/04 Q1014 R88/D NOSIG
UKBB 220800Z 31003MPS 280V340 9999 OVC016 07/04 Q1014 R88/D NOSIG
UKBB 220730Z 30003MPS 260V330 9999 OVC014 07/04 Q1014 R88/CLRD// NOSIG
UKBB 220700Z 29003MPS 9999 OVC014 07/04 Q1014 R88/CLRD// NOSIG
UKBB 220630Z 30004MPS 9999 OVC014 07/04 Q1014 R88/D NOSIG
UKBB 220600Z 30004MPS 270V330 9999 OVC016 07/04 Q1014 R88/CLRD// NOSIG
UKBB 220530Z 29004MPS 9999 OVC016 07/04 Q1014 R88/290050 NOSIG
UKBB 220500Z 30003MPS 9999 OVC016 07/04 Q1014 R88/290050 NOSIG
UKBB 220430Z 29003MPS 250V320 9999 OVC016 07/04 Q1014 R88/290050 NOSIG
UKBB 220400Z 31003MPS 9999 OVC016 07/04 Q1014 R88/290050 NOSIG
UKBB 220330Z 30003MPS 270V330 9999 OVC014 07/04 Q1014 R88/290050 NOSIG
UKBB 220300Z 30004MPS 9999 SCT009 BKN014 07/04 Q1014 R88/290050 NOSIG
UKBB 220230Z 30003MPS 280V340 9999 -RA OVC012 07/04 Q1014 R88/D NOSIG
UKBB 220200Z 29003MPS 260V320 9999 OVC012 07/04 Q1014 R88/CLRD// NOSIG
UKBB 220130Z 29004MPS 9999 OVC014 07/04 Q1014 R88/CLRD// NOSIG
UKBB 220100Z 29004MPS 9999 OVC014 07/05 Q1014 R88/D NOSIG
UKBB 220030Z 29004MPS 260V330 9999 OVC016 07/04 Q1015 R88/CLRD// NOSIG
UKBB 220000Z 29004MPS 9999 OVC018 07/04 Q1015 R88/CLRD// NOSIG
UKBB 212330Z 29004MPS 270V330 9999 BKN020 07/04 Q1015 R88/CLRD// NOSIG
UKBB 212300Z 29004MPS 260V320 9999 BKN018 07/04 Q1015 R88/D NOSIG
UKBB 212230Z 29003MPS 9999 BKN016 07/05 Q1015 R88/D NOSIG
UKBB 212200Z 30003MPS 270V330 9999 BKN020 07/04 Q1015 R88/CLRD// NOSIG
UKBB 212130Z 30004MPS 9999 BKN016 07/05 Q1015 R88/CLRD// NOSIG
UKBB 212100Z 29004MPS 270V330 9999 BKN016 07/05 Q1015 R88/D NOSIG
UKBB 212030Z 30004MPS 270V330 9999 BKN016 07/05 Q1015 R88/290050 NOSIG
UKBB 212000Z 29004MPS 260V320 9999 BKN014 07/05 Q1015 R88/290050 NOSIG
UKBB 211930Z 29004MPS 260V320 9999 BKN016 07/05 Q1015 R88/290050 NOSIG
UKBB 211900Z 29005MPS 9999 SCT016 BKN022 08/05 Q1015 R88/290050 NOSIG
UKBB 211830Z 29004MPS 260V320 9999 OVC020 08/05 Q1015 R88/290050 NOSIG
UKBB 211800Z 29005MPS 9999 OVC018 08/05 Q1015 R88/D NOSIG
UKBB 211730Z 29004MPS 260V320 9999 OVC018 08/05 Q1015 R88/D NOSIG
UKBB 211700Z 30005MPS 270V330 9999 OVC020 08/05 Q1015 R88/D NOSIG
UKBB 211630Z 29004MPS 260V330 9999 -RA OVC018 08/05 Q1015 R88/D NOSIG
UKBB 211600Z 29004MPS 260V330 9999 OVC020 08/05 Q1015 R88/CLRD// NOSIG
UKBB 211530Z 30004MPS 9999 OVC020 08/05 Q1015 R88/CLRD// NOSIG
UKBB 211500Z 30004MPS 260V320 9999 OVC020 08/05 Q1015 R88/D NOSIG
UKBB 211430Z 31005MPS 9999 OVC022 08/04 Q1015 R88/D NOSIG
UKBB 211400Z 30006MPS 270V330 9999 OVC018 08/04 Q1015 R88/CLRD// NOSIG
UKBB 211330Z 28004MPS 240V310 9999 OVC020 08/05 Q1014 R88/D NOSIG
UKBB 211300Z 27004MPS 240V310 9999 OVC020 08/05 Q1014 R88/CLRD// NOSIG
UKBB 211230Z 29003MPS 250V310 9999 OVC020 09/05 Q1014 R88/D NOSIG
UKBB 211200Z 29004MPS 9999 OVC018 08/05 Q1014 R88/CLRD// NOSIG
UKBB 211130Z 27004MPS 240V310 9999 OVC020 08/04 Q1014 R88/290050 NOSIG
UKBB 211100Z 27005MPS 240V310 9999 OVC020 08/05 Q1014 R88/290050 NOSIG
UKBB 211030Z 27004MPS 9999 OVC020 08/05 Q1014 R88/290050 NOSIG
UKBB 211000Z 27004MPS 9999 OVC018 08/04 Q1014 R88/290050 NOSIG
UKBB 210930Z 27005MPS 240V300 9999 -RA SCT016 BKN024 07/05 Q1014 R88/290050 NOSIG
UKBB 210900Z 28004MPS 240V300 9999 -RA SCT016 BKN020 07/05 Q1014 R88/290050 NOSIG
UKBB 210830Z 27004MPS 240V300 9999 -RA OVC020 08/05 Q1014 R88/290050 NOSIG
UKBB 210800Z 27004MPS 250V310 9999 OVC020 07/05 Q1013 R88/290050 NOSIG
UKBB 210730Z 27004MPS 240V300 9999 OVC020 07/04 Q1013 R88/290050 NOSIG
UKBB 210700Z 27004MPS 9999 OVC018 08/04 Q1013 R88/290050 NOSIG
UKBB 210630Z 28004MPS 9999 SCT012 BKN024 07/05 Q1013 R88/290050 NOSIG
UKBB 210600Z 26004MPS 9999 SCT012 BKN024 07/05 Q1013 R88/290050 NOSIG
UKBB 210530Z 27004MPS 9999 SCT012 BKN032 07/05 Q1013 R88/D NOSIG
UKBB 210500Z 26003MPS 230V290 9999 OVC020 07/05 Q1013 R88/CLRD// NOSIG
UKBB 210430Z 27003MPS 9999 OVC014 07/05 Q1013 R88/D NOSIG
UKBB 210400Z 28003MPS 240V310 9999 SCT018 BKN024 07/04 Q1013 R88/CLRD// NOSIG
UKBB 210330Z 29003MPS 260V320 9999 SCT015 BKN024 07/05 Q1013 R88/CLRD// NOSIG
UKBB 210300Z 29004MPS 9999 FEW016 BKN028 07/04 Q1013 R88/CLRD// NOSIG
UKBB 210230Z 29003MPS 260V330 9999 SCT016 BKN024 07/05 Q1013 R88/290050 NOSIG
UKBB 210200Z 30004MPS 9999 SCT016 BKN024 07/05 Q1013 R88/290050 NOSIG
UKBB 210130Z 29003MPS 250V310 9999 BKN016 07/05 Q1013 R88/290050 NOSIG
UKBB 210100Z 31003MPS 9999 BKN012 08/06 Q1013 R88/290050 NOSIG